This is the latest recevied weather packets stored in our database for station/object OK2ILA-6. If no packets are shown the sender has not sent any weather packets the latest 10 day(s).
| Time | Temp. | Humidity | Pressure | Rain* | Wind** | Luminosity | Snow |
|---|---|---|---|---|---|---|---|
| 1777328403 | 5.56° C | 70% | 1020.4 hPa | - | - | - | - |
| 1777327803 | 5.56° C | 70% | 1020.4 hPa | - | - | - | - |
| 1777327203 | 5.56° C | 70% | 1020.4 hPa | - | - | - | - |
| 1777326603 | 5.56° C | 70% | 1020.4 hPa | - | - | - | - |
| 1777326003 | 6.11° C | 68% | 1020.5 hPa | - | - | - | - |
| 1777325402 | 6.67° C | 68% | 1020.6 hPa | - | - | - | - |
| 1777324803 | 6.67° C | 66% | 1020.4 hPa | - | - | - | - |
| 1777324203 | 6.67° C | 66% | 1020.6 hPa | - | - | - | - |
| 1777323603 | 7.22° C | 66% | 1020.7 hPa | - | - | - | - |
| 1777323002 | 7.22° C | 65% | 1020.5 hPa | - | - | - | - |
| 1777322402 | 7.22° C | 66% | 1020.6 hPa | - | - | - | - |
| 1777321803 | 7.22° C | 68% | 1020.4 hPa | - | - | - | - |
| 1777321203 | 7.78° C | 70% | 1020.4 hPa | - | - | - | - |
| 1777320603 | 7.78° C | 69% | 1020.3 hPa | - | - | - | - |
| 1777320003 | 7.78° C | 66% | 1020.5 hPa | - | - | - | - |
| 1777319403 | 8.33° C | 64% | 1020.4 hPa | - | - | - | - |
| 1777318803 | 8.89° C | 62% | 1020.5 hPa | - | - | - | - |
| 1777318203 | 8.89° C | 62% | 1020.4 hPa | - | - | - | - |
| 1777317603 | 9.44° C | 60% | 1020.4 hPa | - | - | - | - |
| 1777317002 | 10° C | 58% | 1020.3 hPa | - | - | - | - |
| 1777316403 | 11.11° C | 50% | 1020.3 hPa | - | - | - | - |
| 1777315803 | 12.22° C | 40% | 1020.4 hPa | - | - | - | - |
| 1777315203 | 12.22° C | 40% | 1020.2 hPa | - | - | - | - |
| 1777314603 | 12.22° C | 38% | 1020 hPa | - | - | - | - |
| 1777314002 | 12.22° C | 38% | 1020 hPa | - | - | - | - |
* Rain since midnight (hover to see other rain measurements)
** Current wind speed in m/s (hover to see current wind gust speed)